Time;durP1;ratioP1;P1;durP2;ratioP2;P2;SDS_P1;SDS_P2;PMS_P1;PMS_P2;Temp;Humidity;BMP_temperature;BMP_pressure;BME280_temperature;BME280_humidity;BME280_pressure;Samples;Min_cycle;Max_cycle;Signal;HPM_P1;HPM_P2
2023/12/17 00:02:10;;;;;;;21.20;14.50;;;;;;;;;;6305743;22;20170;-80
2023/12/17 00:04:37;;;;;;;20.73;14.50;;;;;;;;;;6305788;22;20201;-81
2023/12/17 00:07:05;;;;;;;22.90;14.30;;;;;;;;;;6305670;22;20244;-80
2023/12/17 00:09:32;;;;;;;18.97;12.83;;;;;;;;;;6304683;22;20172;-80
2023/12/17 00:11:59;;;;;;;20.80;13.07;;;;;;;;;;6305446;22;20268;-80
2023/12/17 00:14:28;;;;;;;23.67;13.50;;;;;;;;;;6305913;22;20253;-79
2023/12/17 00:16:55;;;;;;;20.67;13.07;;;;;;;;;;6304824;22;20561;-80
2023/12/17 00:19:22;;;;;;;21.67;13.13;;;;;;;;;;6305253;22;20232;-81
2023/12/17 00:21:49;;;;;;;22.87;14.27;;;;;;;;;;6305408;22;20252;-80
2023/12/17 00:24:17;;;;;;;20.57;14.20;;;;;;;;;;6304235;22;20253;-80
2023/12/17 00:26:44;;;;;;;19.73;13.30;;;;;;;;;;6305165;22;20175;-80
2023/12/17 00:29:12;;;;;;;23.27;13.90;;;;;;;;;;6305404;22;20252;-80
2023/12/17 00:31:40;;;;;;;22.17;14.30;;;;;;;;;;6305506;22;20244;-80
2023/12/17 00:34:07;;;;;;;24.73;14.50;;;;;;;;;;6303430;22;20213;-80
2023/12/17 00:36:35;;;;;;;18.67;12.70;;;;;;;;;;6304545;22;20590;-78
2023/12/17 00:39:02;;;;;;;22.27;13.87;;;;;;;;;;6304330;22;20536;-80
2023/12/17 00:41:29;;;;;;;18.70;13.33;;;;;;;;;;6305528;22;20170;-80
2023/12/17 00:43:57;;;;;;;20.47;13.13;;;;;;;;;;6305211;22;20520;-80
2023/12/17 00:46:24;;;;;;;19.87;13.17;;;;;;;;;;6304662;22;20174;-80
2023/12/17 00:48:52;;;;;;;21.67;13.33;;;;;;;;;;6305717;22;20222;-80
2023/12/17 00:51:20;;;;;;;21.13;14.20;;;;;;;;;;6305434;22;20165;-80
2023/12/17 00:53:47;;;;;;;20.37;13.50;;;;;;;;;;6304611;22;20204;-79
2023/12/17 00:56:14;;;;;;;20.40;14.07;;;;;;;;;;6305108;22;20189;-79
2023/12/17 00:58:41;;;;;;;21.83;13.70;;;;;;;;;;6304719;22;20256;-80
2023/12/17 01:01:09;;;;;;;20.90;13.60;;;;;;;;;;6304872;22;20240;-80
2023/12/17 01:03:36;;;;;;;25.10;14.03;;;;;;;;;;6305567;22;20199;-79
2023/12/17 01:06:05;;;;;;;28.47;15.17;;;;;;;;;;6304420;22;20200;-80
2023/12/17 01:08:32;;;;;;;35.50;21.17;;;;;;;;;;6304691;22;20249;-79
2023/12/17 01:10:59;;;;;;;29.00;18.30;;;;;;;;;;6304984;22;20253;-81
2023/12/17 01:13:27;;;;;;;24.27;15.43;;;;;;;;;;6305347;22;20170;-80
2023/12/17 01:15:54;;;;;;;24.23;13.70;;;;;;;;;;6304982;22;20256;-80
2023/12/17 01:18:21;;;;;;;18.80;12.07;;;;;;;;;;6304546;22;20252;-80
2023/12/17 01:20:48;;;;;;;18.77;11.47;;;;;;;;;;6304686;22;20746;-80
2023/12/17 01:23:17;;;;;;;21.60;11.60;;;;;;;;;;6303810;22;20200;-79
2023/12/17 01:25:44;;;;;;;20.20;11.93;;;;;;;;;;6304703;22;20180;-79
2023/12/17 01:28:11;;;;;;;21.13;12.50;;;;;;;;;;6305328;22;20553;-79
2023/12/17 01:30:39;;;;;;;21.40;12.57;;;;;;;;;;6307454;22;20203;-81
2023/12/17 01:33:06;;;;;;;17.37;11.97;;;;;;;;;;6306892;22;20566;-80
2023/12/17 01:35:33;;;;;;;20.07;11.83;;;;;;;;;;6306152;22;20644;-79
2023/12/17 01:38:00;;;;;;;23.43;12.60;;;;;;;;;;6306487;22;20255;-80
2023/12/17 01:40:29;;;;;;;24.27;12.93;;;;;;;;;;6307337;22;20225;-80
2023/12/17 01:42:57;;;;;;;20.97;12.87;;;;;;;;;;6307151;22;20169;-80
2023/12/17 01:45:25;;;;;;;22.17;12.43;;;;;;;;;;6306350;22;20172;-80
2023/12/17 01:47:52;;;;;;;22.90;13.00;;;;;;;;;;6306390;22;20662;-80
2023/12/17 01:50:19;;;;;;;19.23;12.63;;;;;;;;;;6306269;22;20217;-80
2023/12/17 01:52:47;;;;;;;19.70;12.90;;;;;;;;;;6307047;22;20195;-79
2023/12/17 01:55:14;;;;;;;21.87;13.50;;;;;;;;;;6306694;22;20175;-80
2023/12/17 01:57:43;;;;;;;24.07;13.27;;;;;;;;;;6306771;22;20172;-81
2023/12/17 02:00:11;;;;;;;24.07;13.80;;;;;;;;;;6306873;22;20246;-80
2023/12/17 02:02:38;;;;;;;22.37;13.33;;;;;;;;;;6307200;22;20200;-80
2023/12/17 02:05:06;;;;;;;19.90;13.30;;;;;;;;;;6306870;22;20544;-79
2023/12/17 02:07:33;;;;;;;21.70;13.10;;;;;;;;;;6306670;22;20255;-80
2023/12/17 02:10:01;;;;;;;22.10;13.60;;;;;;;;;;6306714;22;20169;-79
2023/12/17 02:12:29;;;;;;;27.07;14.47;;;;;;;;;;6305957;22;20200;-80
2023/12/17 02:14:57;;;;;;;23.50;13.67;;;;;;;;;;6306335;22;20627;-79
2023/12/17 02:17:26;;;;;;;21.63;13.43;;;;;;;;;;6307099;22;20172;-80
2023/12/17 02:19:53;;;;;;;23.63;13.97;;;;;;;;;;6306110;22;20210;-79
2023/12/17 02:22:21;;;;;;;23.07;13.90;;;;;;;;;;6306872;22;20569;-79
2023/12/17 02:24:50;;;;;;;24.70;13.67;;;;;;;;;;6306431;22;20267;-80
2023/12/17 02:27:20;;;;;;;20.27;13.43;;;;;;;;;;6306566;22;20248;-80
2023/12/17 02:29:48;;;;;;;21.73;12.27;;;;;;;;;;6306612;22;20179;-80
2023/12/17 02:32:15;;;;;;;20.10;12.87;;;;;;;;;;6306636;22;20528;-80
2023/12/17 02:34:42;;;;;;;19.63;12.53;;;;;;;;;;6306169;22;20176;-79
2023/12/17 02:37:09;;;;;;;19.43;12.93;;;;;;;;;;6305841;22;20255;-79
2023/12/17 02:39:36;;;;;;;18.40;13.07;;;;;;;;;;6306012;22;20204;-78
2023/12/17 02:42:05;;;;;;;22.63;14.57;;;;;;;;;;6306470;22;20199;-80
2023/12/17 02:44:33;;;;;;;18.87;13.00;;;;;;;;;;6306290;22;20249;-80
2023/12/17 02:47:00;;;;;;;21.30;13.80;;;;;;;;;;6306533;22;20200;-80
2023/12/17 02:49:27;;;;;;;24.63;15.37;;;;;;;;;;6306313;22;20170;-80
2023/12/17 02:51:55;;;;;;;23.33;14.40;;;;;;;;;;6306181;22;20500;-79
2023/12/17 02:54:23;;;;;;;28.73;15.70;;;;;;;;;;6305838;22;20252;-81
2023/12/17 02:56:51;;;;;;;26.33;15.60;;;;;;;;;;6305625;22;20552;-81
2023/12/17 02:59:19;;;;;;;25.63;15.93;;;;;;;;;;6306384;22;20171;-81
2023/12/17 03:01:47;;;;;;;26.17;14.87;;;;;;;;;;6306264;22;20176;-80
2023/12/17 03:04:14;;;;;;;23.03;15.53;;;;;;;;;;6304625;22;20563;-81
2023/12/17 03:06:42;;;;;;;24.47;15.20;;;;;;;;;;6305727;22;20256;-81
2023/12/17 03:09:09;;;;;;;26.80;15.03;;;;;;;;;;6305947;22;20289;-79
2023/12/17 03:11:36;;;;;;;23.83;14.40;;;;;;;;;;6306264;22;20223;-80
2023/12/17 03:14:03;;;;;;;22.80;15.13;;;;;;;;;;6305235;22;20206;-79
2023/12/17 03:16:32;;;;;;;26.07;15.27;;;;;;;;;;6305894;22;20173;-80
2023/12/17 03:18:59;;;;;;;24.90;15.00;;;;;;;;;;6305353;22;20173;-80
2023/12/17 03:21:27;;;;;;;29.80;16.53;;;;;;;;;;6305567;22;20200;-80
2023/12/17 03:23:54;;;;;;;23.63;15.00;;;;;;;;;;6306041;22;20553;-80
2023/12/17 03:26:21;;;;;;;28.03;15.73;;;;;;;;;;6305689;22;20261;-80
2023/12/17 03:28:49;;;;;;;27.10;15.90;;;;;;;;;;6306186;22;20188;-80
2023/12/17 03:31:16;;;;;;;23.03;15.17;;;;;;;;;;6305601;22;20657;-81
2023/12/17 03:33:46;;;;;;;25.73;15.83;;;;;;;;;;6305858;22;20218;-79
2023/12/17 03:36:14;;;;;;;26.43;15.47;;;;;;;;;;6305869;22;20253;-80
2023/12/17 03:38:42;;;;;;;30.40;15.63;;;;;;;;;;6305221;22;20170;-80
2023/12/17 03:41:20;;;;;;;27.23;15.90;;;;;;;;;;6305091;22;21038;-80
2023/12/17 03:43:48;;;;;;;27.80;15.13;;;;;;;;;;6305829;22;20222;-79
2023/12/17 03:46:15;;;;;;;29.57;16.03;;;;;;;;;;6305534;22;20200;-79
2023/12/17 03:48:42;;;;;;;25.97;16.13;;;;;;;;;;6305844;22;20169;-80
2023/12/17 03:51:11;;;;;;;26.97;15.93;;;;;;;;;;6305476;22;20257;-80
2023/12/17 03:53:38;;;;;;;30.10;15.57;;;;;;;;;;6305850;22;20256;-80
2023/12/17 03:56:08;;;;;;;27.67;15.67;;;;;;;;;;6305595;22;20203;-80
2023/12/17 03:58:35;;;;;;;30.57;16.10;;;;;;;;;;6304721;22;20174;-80
2023/12/17 04:01:03;;;;;;;32.97;15.87;;;;;;;;;;6304427;22;20251;-80
2023/12/17 04:03:30;;;;;;;27.97;15.67;;;;;;;;;;6306053;22;20702;-80
2023/12/17 04:05:59;;;;;;;30.37;16.80;;;;;;;;;;6304716;22;20489;-80
2023/12/17 04:08:27;;;;;;;30.10;16.77;;;;;;;;;;6305623;22;20226;-80
2023/12/17 04:10:54;;;;;;;34.50;17.73;;;;;;;;;;6305509;22;20173;-80
2023/12/17 04:13:22;;;;;;;28.27;16.47;;;;;;;;;;6305252;22;20252;-80
2023/12/17 04:15:49;;;;;;;29.87;16.97;;;;;;;;;;6305296;22;20200;-81
2023/12/17 04:18:16;;;;;;;32.30;17.67;;;;;;;;;;6305051;22;20714;-80
2023/12/17 04:20:43;;;;;;;27.50;16.47;;;;;;;;;;6305487;22;20225;-80
2023/12/17 04:23:10;;;;;;;29.23;16.27;;;;;;;;;;6305510;22;20198;-80
2023/12/17 04:25:39;;;;;;;27.83;15.93;;;;;;;;;;6305415;22;20252;-80
2023/12/17 04:28:06;;;;;;;33.73;16.90;;;;;;;;;;6305414;22;20196;-80
2023/12/17 04:30:33;;;;;;;31.33;15.80;;;;;;;;;;6304341;22;20722;-80
2023/12/17 04:33:00;;;;;;;30.50;15.43;;;;;;;;;;6304833;22;20662;-79
2023/12/17 04:35:27;;;;;;;31.53;15.80;;;;;;;;;;6304656;22;20200;-80
2023/12/17 04:37:55;;;;;;;29.83;16.27;;;;;;;;;;6304665;22;20567;-79
2023/12/17 04:40:22;;;;;;;37.47;16.97;;;;;;;;;;6305689;22;20200;-79
2023/12/17 04:42:51;;;;;;;33.23;16.97;;;;;;;;;;6305312;22;20173;-80
2023/12/17 04:45:18;;;;;;;29.90;16.13;;;;;;;;;;6305186;22;20196;-80
2023/12/17 04:47:45;;;;;;;32.83;17.13;;;;;;;;;;6305695;22;20197;-80
2023/12/17 04:50:12;;;;;;;32.77;17.20;;;;;;;;;;6305382;22;20243;-81
2023/12/17 04:52:40;;;;;;;35.17;17.20;;;;;;;;;;6305027;22;20639;-80
2023/12/17 04:55:07;;;;;;;29.40;17.23;;;;;;;;;;6305895;22;20256;-79
2023/12/17 04:57:34;;;;;;;35.40;17.77;;;;;;;;;;6305076;22;20200;-80
2023/12/17 05:00:05;;;;;;;29.57;17.03;;;;;;;;;;6304457;22;20228;-79
2023/12/17 05:02:32;;;;;;;32.23;16.53;;;;;;;;;;6304805;22;20180;-80
2023/12/17 05:05:00;;;;;;;29.87;16.53;;;;;;;;;;6308805;22;20172;-81
2023/12/17 05:07:27;;;;;;;33.10;16.93;;;;;;;;;;6308781;22;20196;-80
2023/12/17 05:09:54;;;;;;;33.80;18.07;;;;;;;;;;6308707;22;20212;-80
2023/12/17 05:12:21;;;;;;;33.90;18.03;;;;;;;;;;6309051;22;20173;-79
2023/12/17 05:14:49;;;;;;;32.47;17.00;;;;;;;;;;6307866;22;20201;-79
2023/12/17 05:17:17;;;;;;;35.37;17.80;;;;;;;;;;6308692;22;20252;-79
2023/12/17 05:19:44;;;;;;;33.37;18.40;;;;;;;;;;6307949;22;20205;-80
2023/12/17 05:22:12;;;;;;;35.17;18.07;;;;;;;;;;6308546;22;20287;-80
2023/12/17 05:24:39;;;;;;;30.07;16.60;;;;;;;;;;6308792;22;20169;-80
2023/12/17 05:27:06;;;;;;;35.83;16.93;;;;;;;;;;6308186;22;20244;-80
2023/12/17 05:29:33;;;;;;;23.37;15.10;;;;;;;;;;6307888;22;20208;-79
2023/12/17 05:32:01;;;;;;;27.30;16.37;;;;;;;;;;6308460;22;20256;-80
2023/12/17 05:34:29;;;;;;;34.17;17.27;;;;;;;;;;6308459;22;20225;-80
2023/12/17 05:36:57;;;;;;;30.40;17.90;;;;;;;;;;6308267;22;20200;-80
2023/12/17 05:39:24;;;;;;;33.00;18.83;;;;;;;;;;6308409;22;20170;-79
2023/12/17 05:41:51;;;;;;;29.00;17.30;;;;;;;;;;6307715;22;20200;-79
2023/12/17 05:44:18;;;;;;;28.90;17.93;;;;;;;;;;6308284;22;20238;-79
2023/12/17 05:46:46;;;;;;;30.03;17.33;;;;;;;;;;6308886;22;20179;-78
2023/12/17 05:49:13;;;;;;;32.10;18.23;;;;;;;;;;6308496;22;20208;-80
2023/12/17 05:51:44;;;;;;;30.67;17.60;;;;;;;;;;6308065;22;20655;-80
2023/12/17 05:54:11;;;;;;;34.07;18.20;;;;;;;;;;6308239;22;20690;-80
2023/12/17 05:56:42;;;;;;;33.47;18.80;;;;;;;;;;6307872;22;20173;-79
2023/12/17 05:59:10;;;;;;;34.10;19.47;;;;;;;;;;6308873;22;20256;-80
2023/12/17 06:01:37;;;;;;;29.83;17.80;;;;;;;;;;6307572;22;20291;-79
2023/12/17 06:04:05;;;;;;;31.10;17.23;;;;;;;;;;6308196;22;20670;-79
2023/12/17 06:06:32;;;;;;;30.53;18.23;;;;;;;;;;6308301;22;20251;-80
2023/12/17 06:09:01;;;;;;;27.60;17.33;;;;;;;;;;6308386;22;20267;-80
2023/12/17 06:11:28;;;;;;;31.63;17.80;;;;;;;;;;6308191;22;20204;-80
2023/12/17 06:13:55;;;;;;;30.20;17.53;;;;;;;;;;6307919;22;20282;-78
2023/12/17 06:16:22;;;;;;;33.00;17.80;;;;;;;;;;6306024;22;20245;-79
2023/12/17 06:18:51;;;;;;;30.63;17.33;;;;;;;;;;6306620;22;20243;-80
2023/12/17 06:21:22;;;;;;;29.97;17.10;;;;;;;;;;6307103;22;20289;-80
2023/12/17 06:23:50;;;;;;;26.43;17.10;;;;;;;;;;6306544;22;20196;-79
2023/12/17 06:26:19;;;;;;;31.23;16.00;;;;;;;;;;6306368;22;20176;-79
2023/12/17 06:28:46;;;;;;;28.60;16.13;;;;;;;;;;6306929;22;20501;-79
2023/12/17 06:31:13;;;;;;;28.73;16.60;;;;;;;;;;6304686;22;20281;-80
2023/12/17 06:33:41;;;;;;;28.07;16.10;;;;;;;;;;6306299;22;20207;-80
2023/12/17 06:36:08;;;;;;;31.13;16.73;;;;;;;;;;6306652;22;20170;-80
2023/12/17 06:38:35;;;;;;;32.33;17.57;;;;;;;;;;6305651;22;20166;-80
2023/12/17 06:41:02;;;;;;;30.70;17.60;;;;;;;;;;6306195;22;20278;-80
2023/12/17 06:43:31;;;;;;;29.93;18.00;;;;;;;;;;6306372;22;20199;-80
2023/12/17 06:45:58;;;;;;;30.30;18.77;;;;;;;;;;6306355;22;20250;-80
2023/12/17 06:48:25;;;;;;;35.57;19.50;;;;;;;;;;6306460;22;20170;-78
2023/12/17 06:50:52;;;;;;;43.53;21.47;;;;;;;;;;6307015;22;20251;-80
2023/12/17 06:53:20;;;;;;;43.73;21.70;;;;;;;;;;6306643;22;20203;-80
2023/12/17 06:55:47;;;;;;;60.13;28.30;;;;;;;;;;6305617;22;20207;-79
2023/12/17 06:58:14;;;;;;;79.03;25.00;;;;;;;;;;6306441;22;20192;-80
2023/12/17 07:00:43;;;;;;;59.80;24.97;;;;;;;;;;6305835;22;20206;-80
2023/12/17 07:03:10;;;;;;;68.30;24.20;;;;;;;;;;6306125;22;20192;-80
2023/12/17 07:05:38;;;;;;;59.93;22.77;;;;;;;;;;6306056;22;20197;-79
2023/12/17 07:08:05;;;;;;;78.43;22.00;;;;;;;;;;6306021;22;20169;-80
2023/12/17 07:10:32;;;;;;;124.97;24.33;;;;;;;;;;6306094;22;20169;-80
2023/12/17 07:13:00;;;;;;;74.03;22.50;;;;;;;;;;6306320;22;20177;-80
2023/12/17 07:15:27;;;;;;;105.30;22.13;;;;;;;;;;6305916;22;20212;-79
2023/12/17 07:17:56;;;;;;;104.73;21.63;;;;;;;;;;6305815;22;20272;-79
2023/12/17 07:20:23;;;;;;;80.50;21.77;;;;;;;;;;6306202;22;20270;-80
2023/12/17 07:22:50;;;;;;;106.97;22.07;;;;;;;;;;6306223;22;20295;-79
2023/12/17 07:25:18;;;;;;;106.33;22.87;;;;;;;;;;6305299;22;20255;-80
2023/12/17 07:27:45;;;;;;;120.50;23.30;;;;;;;;;;6305748;22;20169;-79
2023/12/17 07:30:12;;;;;;;93.83;22.93;;;;;;;;;;6305914;22;20202;-80
2023/12/17 07:32:40;;;;;;;77.47;23.00;;;;;;;;;;6306086;22;20183;-80
2023/12/17 07:35:09;;;;;;;65.33;24.70;;;;;;;;;;6306255;22;20218;-80
2023/12/17 07:37:36;;;;;;;81.40;23.27;;;;;;;;;;6305189;22;20252;-80
2023/12/17 07:40:04;;;;;;;89.47;23.37;;;;;;;;;;6305458;22;20207;-79
2023/12/17 07:42:31;;;;;;;91.13;22.70;;;;;;;;;;6305271;22;20205;-80
2023/12/17 07:44:58;;;;;;;66.87;22.50;;;;;;;;;;6306332;22;20189;-79
2023/12/17 07:47:26;;;;;;;72.00;23.27;;;;;;;;;;6305897;22;20192;-80
2023/12/17 07:49:53;;;;;;;82.63;27.30;;;;;;;;;;6306028;22;20233;-79
2023/12/17 07:52:22;;;;;;;87.53;24.50;;;;;;;;;;6305680;22;20558;-78
2023/12/17 07:54:49;;;;;;;76.20;22.70;;;;;;;;;;6305013;22;20253;-79
2023/12/17 07:57:16;;;;;;;49.70;23.27;;;;;;;;;;6305004;22;20247;-80
2023/12/17 07:59:44;;;;;;;48.50;24.13;;;;;;;;;;6305915;22;20284;-80
2023/12/17 08:02:11;;;;;;;119.63;26.97;;;;;;;;;;6305942;22;20204;-80
2023/12/17 08:04:39;;;;;;;53.10;24.33;;;;;;;;;;6305625;22;20203;-79
2023/12/17 08:07:06;;;;;;;99.57;23.97;;;;;;;;;;6305115;22;20176;-79
2023/12/17 08:09:35;;;;;;;89.47;22.20;;;;;;;;;;6305388;22;20714;-79
2023/12/17 08:12:02;;;;;;;38.77;20.90;;;;;;;;;;6305388;22;20176;-80
2023/12/17 08:14:29;;;;;;;35.37;19.20;;;;;;;;;;6304843;22;20717;-80
2023/12/17 08:16:57;;;;;;;45.63;17.10;;;;;;;;;;6304921;22;20557;-79
2023/12/17 08:19:24;;;;;;;54.30;16.97;;;;;;;;;;6305703;22;20193;-80
2023/12/17 08:21:51;;;;;;;34.90;17.03;;;;;;;;;;6304974;22;20227;-80
2023/12/17 08:24:18;;;;;;;48.93;18.43;;;;;;;;;;6305398;22;20201;-79
2023/12/17 08:26:47;;;;;;;83.43;19.10;;;;;;;;;;6305472;22;20210;-80
2023/12/17 08:29:14;;;;;;;50.07;19.23;;;;;;;;;;6305608;22;20177;-80
2023/12/17 08:31:45;;;;;;;53.23;23.87;;;;;;;;;;6305161;22;20177;-80
2023/12/17 08:34:13;;;;;;;46.33;20.73;;;;;;;;;;6305254;22;20167;-79
2023/12/17 08:36:41;;;;;;;40.47;23.97;;;;;;;;;;6304835;22;20166;-80
2023/12/17 08:39:11;;;;;;;49.70;19.87;;;;;;;;;;6305280;22;20168;-80
2023/12/17 08:41:38;;;;;;;48.10;21.60;;;;;;;;;;6305041;22;20247;-80
2023/12/17 08:44:08;;;;;;;42.57;21.73;;;;;;;;;;6305222;22;20188;-79
2023/12/17 08:46:35;;;;;;;43.90;19.43;;;;;;;;;;6305047;22;20172;-79
2023/12/17 08:49:03;;;;;;;39.77;18.03;;;;;;;;;;6305329;22;20166;-80
2023/12/17 08:51:30;;;;;;;38.47;20.17;;;;;;;;;;6305253;22;20194;-80
2023/12/17 08:53:57;;;;;;;57.33;20.10;;;;;;;;;;6304237;22;20176;-79
2023/12/17 08:56:24;;;;;;;52.00;19.10;;;;;;;;;;6304463;22;20732;-80
2023/12/17 08:58:52;;;;;;;51.23;18.87;;;;;;;;;;6305195;22;20244;-81
2023/12/17 09:01:20;;;;;;;64.10;31.67;;;;;;;;;;6304110;22;20301;-79
2023/12/17 09:03:47;;;;;;;64.37;20.10;;;;;;;;;;6305088;22;20206;-82
2023/12/17 09:06:15;;;;;;;68.57;28.47;;;;;;;;;;6304187;22;20250;-79
2023/12/17 09:08:42;;;;;;;50.27;23.47;;;;;;;;;;6305575;22;20168;-79
2023/12/17 09:11:09;;;;;;;51.07;19.37;;;;;;;;;;6304776;22;20265;-79
2023/12/17 09:13:36;;;;;;;43.37;19.37;;;;;;;;;;6304293;22;20199;-78
2023/12/17 09:16:03;;;;;;;62.30;19.83;;;;;;;;;;6305295;22;20540;-79
2023/12/17 09:18:32;;;;;;;52.50;20.93;;;;;;;;;;6305180;22;20527;-78
2023/12/17 09:20:59;;;;;;;90.10;21.57;;;;;;;;;;6304877;22;20202;-79
2023/12/17 09:23:26;;;;;;;42.83;27.60;;;;;;;;;;6304829;22;20234;-82
2023/12/17 09:25:54;;;;;;;80.43;25.27;;;;;;;;;;6304770;22;20199;-78
2023/12/17 09:28:21;;;;;;;44.43;26.23;;;;;;;;;;6304100;22;20243;-79
2023/12/17 09:30:48;;;;;;;34.73;17.03;;;;;;;;;;6304503;22;20198;-77
2023/12/17 09:33:16;;;;;;;39.87;16.57;;;;;;;;;;6305144;22;20171;-79
2023/12/17 09:35:45;;;;;;;45.43;17.53;;;;;;;;;;6304520;22;20244;-79
2023/12/17 09:38:14;;;;;;;27.73;14.43;;;;;;;;;;6305300;22;20196;-79
2023/12/17 09:40:41;;;;;;;27.00;16.77;;;;;;;;;;6304953;22;20502;-79
2023/12/17 09:43:10;;;;;;;33.53;17.03;;;;;;;;;;6304795;22;20249;-79
2023/12/17 09:45:39;;;;;;;36.43;16.67;;;;;;;;;;6304528;22;20214;-79
2023/12/17 09:48:06;;;;;;;39.67;16.13;;;;;;;;;;6305355;22;20195;-79
2023/12/17 09:50:33;;;;;;;55.27;17.97;;;;;;;;;;6303423;22;20221;-80
2023/12/17 09:53:02;;;;;;;48.97;21.23;;;;;;;;;;6304569;22;20177;-79
2023/12/17 09:55:29;;;;;;;33.63;18.67;;;;;;;;;;6307125;22;20548;-80
2023/12/17 09:57:56;;;;;;;42.07;18.17;;;;;;;;;;6305364;22;20176;-79
2023/12/17 10:00:24;;;;;;;46.83;18.83;;;;;;;;;;6303753;22;20201;-79
2023/12/17 10:02:50;;;;;;;51.00;19.03;;;;;;;;;;6305191;22;20705;-77
2023/12/17 10:05:17;;;;;;;35.20;17.70;;;;;;;;;;6305473;22;20177;-79
2023/12/17 10:07:45;;;;;;;46.83;18.07;;;;;;;;;;6305005;22;20201;-79
2023/12/17 10:10:15;;;;;;;48.93;17.60;;;;;;;;;;6306125;22;20249;-80
2023/12/17 10:12:42;;;;;;;32.40;17.90;;;;;;;;;;6306141;22;20174;-78
2023/12/17 10:15:11;;;;;;;29.53;17.17;;;;;;;;;;6305760;22;20197;-79
2023/12/17 10:17:39;;;;;;;30.63;17.33;;;;;;;;;;6304782;22;20181;-80
2023/12/17 10:20:07;;;;;;;32.37;18.67;;;;;;;;;;6305482;22;20208;-78
2023/12/17 10:22:34;;;;;;;29.23;16.87;;;;;;;;;;6305686;22;20284;-78
2023/12/17 10:25:01;;;;;;;28.23;15.90;;;;;;;;;;6304376;22;20208;-77
2023/12/17 10:27:30;;;;;;;23.77;15.10;;;;;;;;;;6306196;22;20169;-78
2023/12/17 10:29:58;;;;;;;18.87;11.03;;;;;;;;;;6305787;22;20189;-77
2023/12/17 10:32:26;;;;;;;20.37;12.50;;;;;;;;;;6306487;22;20180;-77
2023/12/17 10:34:54;;;;;;;19.10;11.90;;;;;;;;;;6305705;22;20174;-77
2023/12/17 10:37:22;;;;;;;19.77;11.47;;;;;;;;;;6306435;22;20170;-77
2023/12/17 10:39:50;;;;;;;23.00;11.70;;;;;;;;;;6305610;22;20173;-76
2023/12/17 10:42:18;;;;;;;19.00;12.10;;;;;;;;;;6306251;22;20201;-76
2023/12/17 10:44:48;;;;;;;27.50;11.53;;;;;;;;;;6306106;22;20173;-78
2023/12/17 10:47:16;;;;;;;21.87;11.00;;;;;;;;;;6306307;22;20205;-78
2023/12/17 10:49:44;;;;;;;31.70;10.00;;;;;;;;;;6306287;22;20640;-77
2023/12/17 10:52:12;;;;;;;21.00;9.37;;;;;;;;;;6306204;22;20177;-78
2023/12/17 10:54:39;;;;;;;22.80;11.97;;;;;;;;;;6306667;22;20588;-77
2023/12/17 10:57:09;;;;;;;19.57;9.63;;;;;;;;;;6305723;22;20170;-78
2023/12/17 10:59:37;;;;;;;27.77;10.77;;;;;;;;;;6305984;22;20292;-78
2023/12/17 11:02:06;;;;;;;24.27;10.40;;;;;;;;;;6305279;22;20255;-79
2023/12/17 11:04:35;;;;;;;52.00;9.90;;;;;;;;;;6306191;22;20173;-79
2023/12/17 11:07:02;;;;;;;27.87;9.53;;;;;;;;;;6306238;22;20254;-79
2023/12/17 11:09:30;;;;;;;38.53;10.10;;;;;;;;;;6303722;22;20168;-80
2023/12/17 11:11:57;;;;;;;39.23;10.27;;;;;;;;;;6304071;22;20244;-79
2023/12/17 11:14:24;;;;;;;32.37;10.83;;;;;;;;;;6305895;22;20174;-79
2023/12/17 11:16:53;;;;;;;16.97;10.23;;;;;;;;;;6303281;22;20244;-79
2023/12/17 11:19:22;;;;;;;30.90;11.27;;;;;;;;;;6305690;22;20174;-78
2023/12/17 11:21:50;;;;;;;19.03;10.90;;;;;;;;;;6305063;22;20173;-78
2023/12/17 11:24:19;;;;;;;22.20;11.20;;;;;;;;;;6303883;22;20209;-78
2023/12/17 11:26:46;;;;;;;25.87;11.33;;;;;;;;;;6305271;22;20166;-79
2023/12/17 11:29:32;;;;;;;23.80;10.87;;;;;;;;;;6305671;22;20191;-79
2023/12/17 11:32:00;;;;;;;19.23;9.90;;;;;;;;;;6305546;22;20180;-79
2023/12/17 11:34:29;;;;;;;22.50;11.50;;;;;;;;;;6305434;22;20244;-78
2023/12/17 11:36:57;;;;;;;21.60;11.90;;;;;;;;;;6305452;22;20252;-77
2023/12/17 11:39:25;;;;;;;31.40;13.43;;;;;;;;;;6305284;22;20174;-78
2023/12/17 11:41:52;;;;;;;32.83;13.63;;;;;;;;;;6305674;22;20179;-78
2023/12/17 11:44:19;;;;;;;26.57;12.03;;;;;;;;;;6305164;22;20205;-77
2023/12/17 11:46:48;;;;;;;24.27;10.67;;;;;;;;;;6304914;22;20255;-76
2023/12/17 11:49:15;;;;;;;24.20;10.43;;;;;;;;;;6305341;22;20166;-78
2023/12/17 11:51:44;;;;;;;27.40;11.27;;;;;;;;;;6305496;22;20628;-76
2023/12/17 11:54:18;;;;;;;22.43;11.27;;;;;;;;;;6306062;22;20253;-77
2023/12/17 11:56:45;;;;;;;28.93;11.17;;;;;;;;;;6305642;22;20253;-77
2023/12/17 11:59:12;;;;;;;26.10;9.83;;;;;;;;;;6305057;22;20695;-76
2023/12/17 12:01:39;;;;;;;17.97;9.80;;;;;;;;;;6305521;22;20601;-77
2023/12/17 12:04:06;;;;;;;25.10;10.10;;;;;;;;;;6305299;22;20233;-77
2023/12/17 12:06:33;;;;;;;30.07;10.93;;;;;;;;;;6305521;22;20200;-77
2023/12/17 12:09:03;;;;;;;33.30;9.90;;;;;;;;;;6305465;22;20170;-77
2023/12/17 12:11:34;;;;;;;16.87;10.60;;;;;;;;;;6305700;22;20166;-78
2023/12/17 12:14:01;;;;;;;22.13;11.60;;;;;;;;;;6304807;22;20655;-77
2023/12/17 12:16:29;;;;;;;18.47;10.90;;;;;;;;;;6305227;22;20208;-77
2023/12/17 12:19:02;;;;;;;23.93;11.30;;;;;;;;;;6305174;22;20216;-77
2023/12/17 12:21:30;;;;;;;23.13;9.90;;;;;;;;;;6305790;22;20169;-78
2023/12/17 12:23:57;;;;;;;18.10;10.73;;;;;;;;;;6305235;22;20687;-77
2023/12/17 12:26:26;;;;;;;15.33;9.13;;;;;;;;;;6305165;22;20641;-78
2023/12/17 12:28:56;;;;;;;13.47;8.67;;;;;;;;;;6305299;22;20256;-78
2023/12/17 12:31:24;;;;;;;15.50;9.07;;;;;;;;;;6304910;22;20245;-79
2023/12/17 12:33:55;;;;;;;12.30;7.70;;;;;;;;;;6305300;22;20205;-78
2023/12/17 12:36:22;;;;;;;18.57;9.17;;;;;;;;;;6305294;22;20495;-79
2023/12/17 12:39:02;;;;;;;16.60;9.90;;;;;;;;;;6305250;22;20170;-78
2023/12/17 12:41:30;;;;;;;16.37;9.90;;;;;;;;;;6304880;22;20198;-78
2023/12/17 12:43:58;;;;;;;14.73;9.57;;;;;;;;;;6304985;22;20205;-78
2023/12/17 12:46:25;;;;;;;17.37;9.20;;;;;;;;;;6305548;22;20254;-78
2023/12/17 12:48:56;;;;;;;15.87;9.33;;;;;;;;;;6305248;22;20166;-78
2023/12/17 12:51:23;;;;;;;16.43;10.27;;;;;;;;;;6305615;22;20218;-79
2023/12/17 12:53:51;;;;;;;18.00;10.60;;;;;;;;;;6303848;22;20253;-78
2023/12/17 12:56:19;;;;;;;15.93;9.90;;;;;;;;;;6305351;22;20249;-77
2023/12/17 12:58:48;;;;;;;17.80;10.43;;;;;;;;;;6304499;22;20166;-78
2023/12/17 13:01:15;;;;;;;16.93;11.33;;;;;;;;;;6304396;22;20268;-79
2023/12/17 13:03:42;;;;;;;16.20;9.57;;;;;;;;;;6303793;22;20237;-79
2023/12/17 13:06:09;;;;;;;16.10;9.00;;;;;;;;;;6302550;22;20174;-79
2023/12/17 13:08:36;;;;;;;15.60;9.53;;;;;;;;;;6301944;22;20249;-76
2023/12/17 13:11:04;;;;;;;17.17;10.03;;;;;;;;;;6303042;22;20257;-78
2023/12/17 13:13:31;;;;;;;16.77;10.50;;;;;;;;;;6303217;22;20494;-79
2023/12/17 13:16:00;;;;;;;15.73;10.10;;;;;;;;;;6303089;22;20557;-77
2023/12/17 13:18:28;;;;;;;15.10;8.57;;;;;;;;;;6303979;22;20202;-77
2023/12/17 13:20:56;;;;;;;14.27;8.77;;;;;;;;;;6303378;22;20188;-78
2023/12/17 13:23:25;;;;;;;16.40;8.60;;;;;;;;;;6303958;22;20679;-78
2023/12/17 13:25:52;;;;;;;14.20;9.00;;;;;;;;;;6304916;22;20189;-79
2023/12/17 13:28:19;;;;;;;16.73;9.77;;;;;;;;;;6305280;22;20264;-80
2023/12/17 13:30:47;;;;;;;16.47;10.63;;;;;;;;;;6305810;22;20178;-80
2023/12/17 13:33:15;;;;;;;16.27;9.73;;;;;;;;;;6305364;22;20660;-79
2023/12/17 13:35:42;;;;;;;16.17;9.23;;;;;;;;;;6306705;22;20170;-78
2023/12/17 13:38:10;;;;;;;16.23;9.43;;;;;;;;;;6305066;22;20217;-77
2023/12/17 13:40:37;;;;;;;17.47;9.37;;;;;;;;;;6304654;22;20205;-78
2023/12/17 13:43:04;;;;;;;16.03;9.20;;;;;;;;;;6304385;22;20725;-79
2023/12/17 13:45:31;;;;;;;16.03;8.97;;;;;;;;;;6304469;22;20170;-79
2023/12/17 13:47:59;;;;;;;15.90;9.90;;;;;;;;;;6305745;22;20550;-79
2023/12/17 13:50:27;;;;;;;21.13;11.00;;;;;;;;;;6306745;22;20170;-78
2023/12/17 13:52:56;;;;;;;19.47;10.87;;;;;;;;;;6306893;22;20212;-80
2023/12/17 13:55:24;;;;;;;22.00;11.57;;;;;;;;;;6305968;22;20635;-79
2023/12/17 13:57:51;;;;;;;19.73;10.67;;;;;;;;;;6306690;22;20173;-79
2023/12/17 14:00:18;;;;;;;17.47;9.83;;;;;;;;;;6306588;22;20280;-79
2023/12/17 14:02:45;;;;;;;17.47;9.17;;;;;;;;;;6306629;22;20197;-79
2023/12/17 14:05:13;;;;;;;21.83;10.70;;;;;;;;;;6306320;22;20689;-79
2023/12/17 14:07:41;;;;;;;17.20;9.63;;;;;;;;;;6306509;22;20174;-79
2023/12/17 14:10:10;;;;;;;19.43;11.57;;;;;;;;;;6306074;22;20182;-77
2023/12/17 14:12:37;;;;;;;20.47;12.20;;;;;;;;;;6305478;22;20935;-79
2023/12/17 14:15:06;;;;;;;24.27;12.03;;;;;;;;;;6306732;22;20197;-77
2023/12/17 14:17:33;;;;;;;32.93;11.27;;;;;;;;;;6306401;22;20167;-78
2023/12/17 14:20:00;;;;;;;29.77;11.20;;;;;;;;;;6306356;22;20252;-78
2023/12/17 14:22:28;;;;;;;25.10;10.93;;;;;;;;;;6306680;22;20201;-79